Time;durP1;ratioP1;P1;durP2;ratioP2;P2;SDS_P1;SDS_P2;PMS_P1;PMS_P2;Temp;Humidity;BMP_temperature;BMP_pressure;BME280_temperature;BME280_humidity;BME280_pressure;Samples;Min_cycle;Max_cycle;Signal;HPM_P1;HPM_P2
2022/01/16 00:01:35;;;;;;;19.63;12.75;;;;;;;;;;5007097;28;20033;-81
2022/01/16 00:04:11;;;;;;;30.15;17.55;;;;;;;;;;5000483;28;20123;-82
2022/01/16 00:06:38;;;;;;;23.10;14.65;;;;;;;;;;4998865;28;20022;-81
2022/01/16 00:09:04;;;;;;;23.67;15.15;;;;;;;;;;5009569;28;20035;-82
2022/01/16 00:11:31;;;;;;;27.90;15.45;;;;;;;;;;5024361;28;20034;-82
2022/01/16 00:13:57;;;;;;;26.05;15.00;;;;;;;;;;4995627;28;20046;-81
2022/01/16 00:16:24;;;;;;;27.10;14.98;;;;;;;;;;4997618;28;20051;-81
2022/01/16 00:18:52;;;;;;;24.77;16.05;;;;;;;;;;4996709;28;20030;-81
2022/01/16 00:21:26;;;;;;;27.35;15.95;;;;;;;;;;5006603;28;20543;-81
2022/01/16 00:23:53;;;;;;;25.55;16.48;;;;;;;;;;5005239;28;20046;-81
2022/01/16 00:26:20;;;;;;;28.92;18.40;;;;;;;;;;4997207;28;20020;-82
2022/01/16 00:28:46;;;;;;;31.33;20.67;;;;;;;;;;4995134;28;20055;-82
2022/01/16 00:31:13;;;;;;;30.05;20.33;;;;;;;;;;4998973;28;20026;-83
2022/01/16 00:33:42;;;;;;;30.10;18.83;;;;;;;;;;5002110;28;20057;-83
2022/01/16 00:36:10;;;;;;;32.30;19.33;;;;;;;;;;4999488;28;20110;-83
2022/01/16 00:38:39;;;;;;;27.83;17.80;;;;;;;;;;5006489;28;20030;-82
2022/01/16 00:41:05;;;;;;;28.98;18.63;;;;;;;;;;5008795;28;20033;-82
2022/01/16 00:43:32;;;;;;;30.95;18.55;;;;;;;;;;5012151;28;20022;-82
2022/01/16 00:45:58;;;;;;;30.45;18.20;;;;;;;;;;5009676;28;20129;-82
2022/01/16 00:48:24;;;;;;;33.00;19.30;;;;;;;;;;5009667;28;20068;-82
2022/01/16 00:50:52;;;;;;;30.23;18.33;;;;;;;;;;4999298;28;20061;-82
2022/01/16 00:53:18;;;;;;;28.95;19.02;;;;;;;;;;5006814;28;20065;-82
2022/01/16 00:55:44;;;;;;;27.00;18.70;;;;;;;;;;4997242;28;20077;-82
2022/01/16 00:58:10;;;;;;;30.40;17.70;;;;;;;;;;5010825;28;20137;-81
2022/01/16 01:00:41;;;;;;;31.02;19.13;;;;;;;;;;5011363;28;20081;-82
2022/01/16 01:03:08;;;;;;;31.55;18.10;;;;;;;;;;5010540;28;20051;-82
2022/01/16 01:05:35;;;;;;;29.48;17.55;;;;;;;;;;5001757;28;20030;-84
2022/01/16 01:08:08;;;;;;;26.38;17.73;;;;;;;;;;5001310;28;20030;-82
2022/01/16 01:10:36;;;;;;;;;;;;;;;;;;4991973;28;20038;-83
2022/01/16 01:13:10;;;;;;;27.58;18.45;;;;;;;;;;5002796;28;19910;-82
2022/01/16 01:15:43;;;;;;;26.13;16.58;;;;;;;;;;5010164;28;20027;-82
2022/01/16 01:18:09;;;;;;;25.30;15.57;;;;;;;;;;5002463;28;20030;-82
2022/01/16 01:20:36;;;;;;;27.45;16.05;;;;;;;;;;4991838;28;20015;-82
2022/01/16 01:23:02;;;;;;;25.65;15.77;;;;;;;;;;4992028;28;20022;-82
2022/01/16 01:25:28;;;;;;;25.05;16.33;;;;;;;;;;4992391;28;20030;-82
2022/01/16 01:27:57;;;;;;;27.08;16.55;;;;;;;;;;5000048;28;20123;-83
2022/01/16 01:30:24;;;;;;;25.50;15.35;;;;;;;;;;5008926;28;20030;-82
2022/01/16 01:32:53;;;;;;;28.67;17.27;;;;;;;;;;4996352;28;20035;-83
2022/01/16 01:35:19;;;;;;;25.52;16.58;;;;;;;;;;5011256;28;20014;-83
2022/01/16 01:37:46;;;;;;;25.00;15.05;;;;;;;;;;5010579;28;20026;-82
2022/01/16 01:40:14;;;;;;;27.20;16.80;;;;;;;;;;5000469;28;20027;-82
2022/01/16 01:42:49;;;;;;;28.75;16.50;;;;;;;;;;5000412;28;20037;-82
2022/01/16 01:51:08;;;;;;;27.77;16.35;;;;;;;;;;5005784;28;20061;-83
2022/01/16 01:53:35;;;;;;;26.40;16.75;;;;;;;;;;5008922;28;20121;-83
2022/01/16 01:56:02;;;;;;;24.35;16.15;;;;;;;;;;5008818;28;20022;-82
2022/01/16 01:58:29;;;;;;;27.58;17.40;;;;;;;;;;4992280;28;20023;-83
2022/01/16 02:00:55;;;;;;;28.98;16.08;;;;;;;;;;5009615;28;20069;-82
2022/01/16 02:03:56;;;;;;;27.85;14.98;;;;;;;;;;5003943;28;20054;-82
2022/01/16 02:06:15;;;;;;;24.17;14.07;;;;;;;;;;4989184;28;20038;-84
2022/01/16 02:08:48;;;;;;;22.67;14.15;;;;;;;;;;4992564;28;20121;-83
2022/01/16 02:11:16;;;;;;;25.27;15.63;;;;;;;;;;5007598;28;20037;-83
2022/01/16 02:13:56;;;;;;;23.40;14.77;;;;;;;;;;5008789;28;20022;-83
2022/01/16 02:35:37;;;;;;;30.15;16.50;;;;;;;;;;4991343;28;20027;-83
2022/01/16 02:38:05;;;;;;;39.35;19.83;;;;;;;;;;4999813;28;20019;-83
2022/01/16 02:40:31;;;;;;;28.17;17.02;;;;;;;;;;5009368;28;20034;-82
2022/01/16 02:42:58;;;;;;;32.25;16.88;;;;;;;;;;5010756;28;20034;-83
2022/01/16 02:45:29;;;;;;;39.35;22.55;;;;;;;;;;5007893;28;20109;-83
2022/01/16 02:47:58;;;;;;;38.85;21.20;;;;;;;;;;4990801;28;20459;-83
2022/01/16 02:50:25;;;;;;;42.47;22.25;;;;;;;;;;4989953;28;20026;-83
2022/01/16 02:52:51;;;;;;;55.55;28.98;;;;;;;;;;4988384;28;20030;-83
2022/01/16 02:55:20;;;;;;;52.97;28.48;;;;;;;;;;5018875;28;20034;-83
2022/01/16 02:57:47;;;;;;;63.83;29.15;;;;;;;;;;4992469;28;20525;-83
2022/01/16 03:00:13;;;;;;;69.75;32.08;;;;;;;;;;4988822;28;20026;-83
2022/01/16 03:02:39;;;;;;;43.97;25.02;;;;;;;;;;4998172;28;20034;-83
2022/01/16 03:05:05;;;;;;;37.72;20.55;;;;;;;;;;4999542;28;20029;-83
2022/01/16 03:07:31;;;;;;;29.20;17.38;;;;;;;;;;5019522;28;20611;-82
2022/01/16 03:10:23;;;;;;;28.80;17.27;;;;;;;;;;5007346;28;20030;-83
2022/01/16 03:12:50;;;;;;;29.80;17.10;;;;;;;;;;5004927;28;20098;-83
2022/01/16 03:15:17;;;;;;;27.00;15.82;;;;;;;;;;4990329;28;20027;-83
2022/01/16 03:23:03;;;;;;;33.13;17.35;;;;;;;;;;5009304;28;20045;-83
2022/01/16 03:25:29;;;;;;;26.35;15.77;;;;;;;;;;5013429;28;20064;-83
2022/01/16 03:27:55;;;;;;;27.98;15.68;;;;;;;;;;4996969;28;20109;-83
2022/01/16 03:30:21;;;;;;;29.88;16.65;;;;;;;;;;4990273;28;20023;-83
2022/01/16 03:32:47;;;;;;;28.73;17.13;;;;;;;;;;4999527;28;20118;-84
2022/01/16 03:35:15;;;;;;;28.65;16.65;;;;;;;;;;5004886;28;20034;-83
2022/01/16 03:37:44;;;;;;;26.83;16.83;;;;;;;;;;4998790;28;20035;-84
2022/01/16 03:40:11;;;;;;;26.88;16.73;;;;;;;;;;4988251;28;20093;-84
2022/01/16 03:42:38;;;;;;;31.88;18.83;;;;;;;;;;5008705;28;20041;-84
2022/01/16 03:45:06;;;;;;;29.98;17.08;;;;;;;;;;5007898;28;20026;-84
2022/01/16 03:47:32;;;;;;;30.70;17.45;;;;;;;;;;5007887;28;20022;-83
2022/01/16 03:49:58;;;;;;;27.60;16.05;;;;;;;;;;4997510;28;20031;-84
2022/01/16 03:52:25;;;;;;;28.85;17.40;;;;;;;;;;4995865;28;20050;-83
2022/01/16 03:54:51;;;;;;;29.55;16.10;;;;;;;;;;4990833;28;20394;-84
2022/01/16 03:57:17;;;;;;;29.27;17.52;;;;;;;;;;4993326;28;20042;-83
2022/01/16 03:59:43;;;;;;;25.92;15.82;;;;;;;;;;5009715;28;20046;-84
2022/01/16 04:02:11;;;;;;;29.52;16.10;;;;;;;;;;5010738;28;20023;-84
2022/01/16 04:04:37;;;;;;;30.33;16.33;;;;;;;;;;4992265;28;20082;-84
2022/01/16 04:07:03;;;;;;;38.85;16.70;;;;;;;;;;4998878;28;20033;-84
2022/01/16 04:09:29;;;;;;;25.50;15.45;;;;;;;;;;5001227;28;20098;-84
2022/01/16 04:11:57;;;;;;;26.08;15.13;;;;;;;;;;4988826;28;20054;-83
2022/01/16 04:17:10;;;;;;;26.05;16.08;;;;;;;;;;4995004;28;20061;-84
2022/01/16 04:19:36;;;;;;;32.03;16.70;;;;;;;;;;5011537;28;20053;-83
2022/01/16 04:22:02;;;;;;;24.38;15.23;;;;;;;;;;4993563;28;20025;-84
2022/01/16 04:24:28;;;;;;;28.23;15.27;;;;;;;;;;4993359;28;20024;-83
2022/01/16 04:26:55;;;;;;;28.65;17.05;;;;;;;;;;5004686;28;20030;-84
2022/01/16 04:29:21;;;;;;;27.75;16.40;;;;;;;;;;5012826;28;20058;-85
2022/01/16 04:31:47;;;;;;;29.67;16.88;;;;;;;;;;5013029;28;20541;-84
2022/01/16 04:34:13;;;;;;;30.17;16.98;;;;;;;;;;5013446;28;20027;-84
2022/01/16 04:36:39;;;;;;;27.98;15.63;;;;;;;;;;5013063;28;20030;-83
2022/01/16 04:39:14;;;;;;;27.58;16.80;;;;;;;;;;5010951;28;20014;-83
2022/01/16 04:44:26;;;;;;;26.75;15.75;;;;;;;;;;5002969;28;20033;-83
2022/01/16 04:46:52;;;;;;;28.10;15.52;;;;;;;;;;4997283;28;20093;-83
2022/01/16 04:49:19;;;;;;;25.00;15.55;;;;;;;;;;5001074;28;20026;-83
2022/01/16 04:51:45;;;;;;;24.75;14.65;;;;;;;;;;5012422;28;20477;-83
2022/01/16 04:54:14;;;;;;;26.05;15.40;;;;;;;;;;5011624;28;20078;-83
2022/01/16 04:56:40;;;;;;;31.55;16.40;;;;;;;;;;4994422;28;20093;-82
2022/01/16 04:59:06;;;;;;;29.70;15.40;;;;;;;;;;5002912;28;20022;-82
2022/01/16 05:01:33;;;;;;;27.00;16.77;;;;;;;;;;5005258;28;20023;-83
2022/01/16 05:03:59;;;;;;;26.00;15.73;;;;;;;;;;5009053;28;20082;-83
2022/01/16 05:06:28;;;;;;;29.27;16.92;;;;;;;;;;4998290;28;20034;-83
2022/01/16 05:08:54;;;;;;;28.08;15.35;;;;;;;;;;5025629;28;20033;-82
2022/01/16 05:11:25;;;;;;;19.77;14.80;;;;;;;;;;5011818;28;20030;-83
2022/01/16 05:16:37;;;;;;;28.08;16.83;;;;;;;;;;5011954;28;20022;-83
2022/01/16 05:19:08;;;;;;;27.85;14.68;;;;;;;;;;5011823;28;20077;-84
2022/01/16 05:21:34;;;;;;;24.85;15.27;;;;;;;;;;5003715;28;20046;-83
2022/01/16 05:24:04;;;;;;;27.13;16.05;;;;;;;;;;4996461;28;20286;-83
2022/01/16 05:26:31;;;;;;;24.85;15.57;;;;;;;;;;5014742;28;20033;-83
2022/01/16 05:28:57;;;;;;;23.73;15.93;;;;;;;;;;5014240;28;20095;-83
2022/01/16 05:31:24;;;;;;;30.45;16.35;;;;;;;;;;5012623;28;20042;-83
2022/01/16 05:33:52;;;;;;;26.73;16.60;;;;;;;;;;5013494;28;20053;-83
2022/01/16 05:36:21;;;;;;;27.55;16.30;;;;;;;;;;5012270;28;20030;-84
2022/01/16 05:38:48;;;;;;;32.83;18.05;;;;;;;;;;5008109;28;20033;-83
2022/01/16 05:41:14;;;;;;;30.35;15.98;;;;;;;;;;4991746;28;20042;-83
2022/01/16 05:43:43;;;;;;;31.52;16.70;;;;;;;;;;4992473;28;20027;-83
2022/01/16 05:46:09;;;;;;;28.35;16.27;;;;;;;;;;4989830;28;20037;-83
2022/01/16 05:48:35;;;;;;;23.48;15.48;;;;;;;;;;5000606;28;20042;-84
2022/01/16 05:51:01;;;;;;;26.35;16.00;;;;;;;;;;5008729;28;20071;-84
2022/01/16 05:53:27;;;;;;;30.00;16.85;;;;;;;;;;5015973;28;20037;-84
2022/01/16 05:55:57;;;;;;;25.48;15.93;;;;;;;;;;5030649;28;20045;-84
2022/01/16 05:58:23;;;;;;;27.45;16.60;;;;;;;;;;4982505;28;20502;-83
2022/01/16 06:00:49;;;;;;;28.92;15.57;;;;;;;;;;4970455;28;20027;-84
2022/01/16 06:03:16;;;;;;;29.33;16.63;;;;;;;;;;4969253;28;20031;-83
2022/01/16 06:05:42;;;;;;;27.00;16.10;;;;;;;;;;4972022;28;20054;-85
2022/01/16 06:08:11;;;;;;;30.73;16.20;;;;;;;;;;4969910;28;20132;-83
2022/01/16 06:10:38;;;;;;;31.35;15.05;;;;;;;;;;4969613;28;20085;-83
2022/01/16 06:13:05;;;;;;;28.45;15.80;;;;;;;;;;4971205;28;20027;-84
2022/01/16 06:15:31;;;;;;;27.55;15.52;;;;;;;;;;4958171;29;20031;-83
2022/01/16 06:18:05;;;;;;;25.58;15.88;;;;;;;;;;4965836;28;20032;-84
2022/01/16 06:20:31;;;;;;;29.25;15.55;;;;;;;;;;4963619;28;20479;-83
2022/01/16 06:22:57;;;;;;;31.92;16.65;;;;;;;;;;4960790;28;20023;-83
2022/01/16 06:25:24;;;;;;;27.20;17.15;;;;;;;;;;4962290;29;20066;-84
2022/01/16 06:27:50;;;;;;;30.15;15.75;;;;;;;;;;4962113;28;20117;-84
2022/01/16 06:30:17;;;;;;;25.20;14.90;;;;;;;;;;4960054;28;20042;-83
2022/01/16 06:32:44;;;;;;;27.92;16.08;;;;;;;;;;4965975;28;20038;-83
2022/01/16 06:35:11;;;;;;;25.42;14.50;;;;;;;;;;4967790;29;20046;-84
2022/01/16 06:37:37;;;;;;;22.70;13.73;;;;;;;;;;4961749;28;20024;-83
2022/01/16 06:40:03;;;;;;;28.65;17.10;;;;;;;;;;4964436;28;20531;-84
2022/01/16 06:42:30;;;;;;;30.58;16.77;;;;;;;;;;4962227;28;20027;-83
2022/01/16 06:44:56;;;;;;;28.55;15.70;;;;;;;;;;4961584;29;20023;-84
2022/01/16 06:47:22;;;;;;;26.63;16.30;;;;;;;;;;4959584;28;20027;-84
2022/01/16 06:49:48;;;;;;;27.50;15.82;;;;;;;;;;4956724;29;20026;-84
2022/01/16 06:52:14;;;;;;;29.00;15.50;;;;;;;;;;4957528;29;20030;-83
2022/01/16 06:54:42;;;;;;;24.20;15.07;;;;;;;;;;4957824;29;20043;-83
2022/01/16 06:57:08;;;;;;;27.35;16.33;;;;;;;;;;4972517;28;20042;-84
2022/01/16 06:59:38;;;;;;;27.80;15.50;;;;;;;;;;4997016;28;20018;-84
2022/01/16 07:02:05;;;;;;;28.70;16.50;;;;;;;;;;4994834;28;20046;-83
2022/01/16 07:04:31;;;;;;;26.77;16.00;;;;;;;;;;5001876;28;20031;-84
2022/01/16 07:07:21;;;;;;;30.75;16.60;;;;;;;;;;4999965;28;20431;-85
2022/01/16 07:09:47;;;;;;;29.67;15.18;;;;;;;;;;4998894;28;20174;-84
2022/01/16 07:12:13;;;;;;;30.80;16.90;;;;;;;;;;4997777;28;20078;-84
2022/01/16 07:14:40;;;;;;;27.58;16.42;;;;;;;;;;4997085;28;20050;-84
2022/01/16 07:17:06;;;;;;;26.45;15.65;;;;;;;;;;4999656;28;20023;-84
2022/01/16 07:19:33;;;;;;;28.83;16.50;;;;;;;;;;5006474;28;20118;-84
2022/01/16 07:21:59;;;;;;;29.27;16.23;;;;;;;;;;4998165;28;20043;-85
2022/01/16 07:24:25;;;;;;;30.10;16.90;;;;;;;;;;5004885;28;20401;-85
2022/01/16 07:26:51;;;;;;;24.95;15.05;;;;;;;;;;5003289;28;20038;-84
2022/01/16 07:29:17;;;;;;;26.40;15.75;;;;;;;;;;4990118;28;20125;-84
2022/01/16 07:31:43;;;;;;;29.33;16.67;;;;;;;;;;4991336;28;20085;-84
2022/01/16 07:34:10;;;;;;;32.05;18.88;;;;;;;;;;5002487;28;20026;-84
2022/01/16 07:36:37;;;;;;;31.40;18.63;;;;;;;;;;5005759;28;20523;-84
2022/01/16 07:39:03;;;;;;;31.17;20.10;;;;;;;;;;5007435;28;20061;-85
2022/01/16 07:41:33;;;;;;;40.83;24.38;;;;;;;;;;5005580;28;20037;-84
2022/01/16 07:43:59;;;;;;;36.25;24.65;;;;;;;;;;5000549;28;20034;-83
2022/01/16 07:46:25;;;;;;;34.92;21.52;;;;;;;;;;5007969;28;20038;-81
2022/01/16 07:48:51;;;;;;;33.42;21.90;;;;;;;;;;5000062;28;20064;-83
2022/01/16 07:51:22;;;;;;;37.20;22.48;;;;;;;;;;5001908;28;20302;-81
2022/01/16 07:53:48;;;;;;;36.08;23.42;;;;;;;;;;4993930;28;20252;-82
2022/01/16 07:56:14;;;;;;;26.77;18.30;;;;;;;;;;5004530;28;20030;-81
2022/01/16 07:58:42;;;;;;;24.88;17.48;;;;;;;;;;5004434;28;20034;-81
2022/01/16 08:01:08;;;;;;;26.10;16.48;;;;;;;;;;5005880;28;20045;-82
2022/01/16 08:03:34;;;;;;;28.70;17.48;;;;;;;;;;4999766;28;20034;-81
2022/01/16 08:06:00;;;;;;;26.10;17.88;;;;;;;;;;5005781;28;20023;-81
2022/01/16 08:08:27;;;;;;;25.02;16.85;;;;;;;;;;4993633;28;20142;-80
2022/01/16 08:10:53;;;;;;;26.60;16.27;;;;;;;;;;4994417;28;20026;-80
2022/01/16 08:13:19;;;;;;;25.98;16.67;;;;;;;;;;4994601;28;20042;-80
2022/01/16 08:15:45;;;;;;;23.75;16.05;;;;;;;;;;5000615;28;20037;-80
2022/01/16 08:18:11;;;;;;;21.95;16.58;;;;;;;;;;5006312;28;20390;-80
2022/01/16 08:20:37;;;;;;;27.85;16.52;;;;;;;;;;4996230;28;20026;-81
2022/01/16 08:23:04;;;;;;;27.50;16.92;;;;;;;;;;5004372;28;20030;-82
2022/01/16 08:25:30;;;;;;;25.60;16.63;;;;;;;;;;4993683;28;20440;-80
2022/01/16 08:27:56;;;;;;;26.23;16.63;;;;;;;;;;4986795;28;20031;-80
2022/01/16 08:30:23;;;;;;;26.02;17.10;;;;;;;;;;4990073;28;20054;-80
2022/01/16 08:32:49;;;;;;;24.98;17.75;;;;;;;;;;5008738;28;20038;-79
2022/01/16 08:35:15;;;;;;;26.30;18.20;;;;;;;;;;4996224;28;20109;-79
2022/01/16 08:37:41;;;;;;;30.25;21.55;;;;;;;;;;4998290;28;20073;-80
2022/01/16 08:40:08;;;;;;;26.42;17.90;;;;;;;;;;4992119;28;20030;-79
2022/01/16 08:42:35;;;;;;;28.25;19.17;;;;;;;;;;5000980;28;20436;-80
2022/01/16 08:45:01;;;;;;;29.65;19.15;;;;;;;;;;4999799;28;20504;-80
2022/01/16 08:47:28;;;;;;;29.13;21.10;;;;;;;;;;5001507;28;20026;-80
2022/01/16 08:49:54;;;;;;;31.02;19.63;;;;;;;;;;4996604;28;20022;-79
2022/01/16 08:52:21;;;;;;;29.23;20.25;;;;;;;;;;4989535;28;20381;-80
2022/01/16 08:54:48;;;;;;;29.52;20.50;;;;;;;;;;4991974;28;20050;-79
2022/01/16 08:57:14;;;;;;;30.08;20.50;;;;;;;;;;4999860;28;20386;-79
2022/01/16 08:59:40;;;;;;;32.58;22.02;;;;;;;;;;4994392;28;20090;-79
2022/01/16 09:02:06;;;;;;;33.85;20.60;;;;;;;;;;4998180;28;20026;-78
2022/01/16 09:04:32;;;;;;;32.08;20.88;;;;;;;;;;4996530;28;20022;-78
2022/01/16 09:06:58;;;;;;;31.48;20.83;;;;;;;;;;4995074;28;20037;-79
2022/01/16 09:09:24;;;;;;;30.75;19.30;;;;;;;;;;4997331;28;20061;-79
2022/01/16 09:11:54;;;;;;;30.50;19.95;;;;;;;;;;4992459;28;20060;-79
2022/01/16 09:14:20;;;;;;;29.30;19.33;;;;;;;;;;5001888;28;20034;-80
2022/01/16 09:16:46;;;;;;;30.77;19.92;;;;;;;;;;5005457;28;20062;-80
2022/01/16 09:19:12;;;;;;;29.80;19.48;;;;;;;;;;4999997;28;20054;-80
2022/01/16 09:21:38;;;;;;;31.73;21.52;;;;;;;;;;4998827;28;20042;-79
2022/01/16 09:24:04;;;;;;;33.63;22.02;;;;;;;;;;4997371;28;20314;-79
2022/01/16 09:26:31;;;;;;;32.63;20.50;;;;;;;;;;4998216;28;20104;-79
2022/01/16 09:28:57;;;;;;;38.03;21.48;;;;;;;;;;4994187;28;20057;-79
2022/01/16 09:31:23;;;;;;;31.08;20.90;;;;;;;;;;4996687;28;20030;-80
2022/01/16 09:33:49;;;;;;;34.72;21.25;;;;;;;;;;4993392;28;20041;-78
2022/01/16 09:36:15;;;;;;;29.42;19.80;;;;;;;;;;4991151;28;20019;-79
2022/01/16 09:38:41;;;;;;;34.47;19.55;;;;;;;;;;5016373;28;20090;-80
2022/01/16 09:41:08;;;;;;;31.42;20.92;;;;;;;;;;4991985;28;20061;-79
2022/01/16 09:43:35;;;;;;;27.35;19.33;;;;;;;;;;4997923;28;20441;-80
2022/01/16 09:46:02;;;;;;;37.63;21.35;;;;;;;;;;4994318;28;20031;-80
2022/01/16 09:48:28;;;;;;;33.05;21.30;;;;;;;;;;4996414;28;20058;-79
2022/01/16 09:50:54;;;;;;;29.08;19.30;;;;;;;;;;4991018;28;20393;-78
2022/01/16 09:53:24;;;;;;;31.67;20.08;;;;;;;;;;4993119;28;20029;-78
2022/01/16 09:55:51;;;;;;;31.38;21.35;;;;;;;;;;4996433;28;20026;-79
2022/01/16 09:58:17;;;;;;;33.45;20.88;;;;;;;;;;4994539;28;20132;-79
2022/01/16 10:00:44;;;;;;;29.60;20.23;;;;;;;;;;4992967;28;20034;-78
2022/01/16 10:03:11;;;;;;;29.67;20.25;;;;;;;;;;4997056;28;20030;-79
2022/01/16 10:05:38;;;;;;;31.35;21.08;;;;;;;;;;4997092;28;20033;-78
2022/01/16 10:08:05;;;;;;;33.90;21.45;;;;;;;;;;4989610;28;20030;-78
2022/01/16 10:10:34;;;;;;;35.08;20.67;;;;;;;;;;4995979;28;20026;-78
2022/01/16 10:13:07;;;;;;;34.80;21.60;;;;;;;;;;5001731;28;20118;-78
2022/01/16 10:15:33;;;;;;;30.55;20.40;;;;;;;;;;5001621;28;20153;-80
2022/01/16 10:18:00;;;;;;;36.63;21.27;;;;;;;;;;4995019;28;20053;-79
2022/01/16 10:20:27;;;;;;;33.03;21.23;;;;;;;;;;4997652;28;20026;-78
2022/01/16 10:22:54;;;;;;;32.80;20.35;;;;;;;;;;5003584;28;20463;-79
2022/01/16 10:25:36;;;;;;;34.58;21.70;;;;;;;;;;5009137;28;20023;-79
2022/01/16 10:28:03;;;;;;;29.23;19.25;;;;;;;;;;4993931;28;20050;-79
2022/01/16 10:30:48;;;;;;;38.95;23.45;;;;;;;;;;5000029;28;20031;-79
2022/01/16 10:33:19;;;;;;;34.50;20.70;;;;;;;;;;5002215;28;20026;-79
2022/01/16 10:35:47;;;;;;;34.72;21.50;;;;;;;;;;5000682;28;20039;-79
2022/01/16 10:38:18;;;;;;;34.63;21.88;;;;;;;;;;4999638;28;20022;-79
2022/01/16 10:40:50;;;;;;;27.40;18.10;;;;;;;;;;5006171;28;20049;-79
2022/01/16 10:43:16;;;;;;;29.95;17.63;;;;;;;;;;5004931;28;20022;-80
2022/01/16 10:45:51;;;;;;;28.13;18.80;;;;;;;;;;5000699;28;20123;-78
2022/01/16 10:48:26;;;;;;;28.40;18.83;;;;;;;;;;4993364;28;20034;-79
2022/01/16 10:50:52;;;;;;;28.23;19.73;;;;;;;;;;5001263;28;20058;-79
2022/01/16 10:53:21;;;;;;;30.35;20.30;;;;;;;;;;4999129;28;20031;-79
2022/01/16 10:55:57;;;;;;;31.90;20.00;;;;;;;;;;4982293;28;20027;-79
2022/01/16 10:58:27;;;;;;;35.22;20.98;;;;;;;;;;4997936;28;20043;-79
2022/01/16 11:01:03;;;;;;;29.92;20.38;;;;;;;;;;5002030;28;20026;-79
2022/01/16 11:03:48;;;;;;;30.02;19.42;;;;;;;;;;4990675;28;20037;-80
2022/01/16 11:06:21;;;;;;;29.40;18.55;;;;;;;;;;4990128;28;20086;-79
2022/01/16 11:08:53;;;;;;;28.85;19.73;;;;;;;;;;5004607;28;20034;-80
2022/01/16 11:11:22;;;;;;;28.45;19.88;;;;;;;;;;4999140;28;20090;-79
2022/01/16 11:13:54;;;;;;;29.73;20.35;;;;;;;;;;5001211;28;20034;-79
2022/01/16 11:16:20;;;;;;;29.88;20.52;;;;;;;;;;4989591;28;20449;-80
2022/01/16 11:18:49;;;;;;;27.88;19.85;;;;;;;;;;5000695;28;20169;-79
2022/01/16 11:21:42;;;;;;;26.58;18.83;;;;;;;;;;4997974;28;20030;-80
2022/01/16 11:26:59;;;;;;;29.50;20.27;;;;;;;;;;4966666;28;20047;-79
2022/01/16 11:29:26;;;;;;;27.42;18.90;;;;;;;;;;4961436;28;20031;-79
2022/01/16 11:31:53;;;;;;;30.27;20.13;;;;;;;;;;4964395;28;20039;-78
2022/01/16 11:34:27;;;;;;;26.70;19.50;;;;;;;;;;4965154;28;20030;-79
2022/01/16 11:36:54;;;;;;;28.83;22.08;;;;;;;;;;4974796;28;20033;-79
2022/01/16 11:39:20;;;;;;;28.85;18.63;;;;;;;;;;4956745;28;20030;-80
2022/01/16 11:41:56;;;;;;;30.05;19.35;;;;;;;;;;4978944;28;20023;-79
2022/01/16 11:44:23;;;;;;;26.70;20.58;;;;;;;;;;4979276;28;20058;-80
2022/01/16 11:46:50;;;;;;;26.92;20.23;;;;;;;;;;4962155;28;20038;-78
2022/01/16 11:49:19;;;;;;;27.08;18.65;;;;;;;;;;4951539;28;20512;-80
2022/01/16 11:51:51;;;;;;;27.10;19.25;;;;;;;;;;4947120;28;20050;-79
2022/01/16 11:54:20;;;;;;;27.97;19.87;;;;;;;;;;4947737;28;20066;-79
2022/01/16 11:56:46;;;;;;;26.13;18.88;;;;;;;;;;4976301;28;20442;-79
2022/01/16 11:59:30;;;;;;;29.15;19.20;;;;;;;;;;4974763;28;20048;-80
2022/01/16 12:02:08;;;;;;;24.70;18.88;;;;;;;;;;4964164;28;20058;-79
2022/01/16 12:04:34;;;;;;;28.90;20.08;;;;;;;;;;4987151;28;20046;-80
2022/01/16 12:07:13;;;;;;;29.20;20.70;;;;;;;;;;4984216;28;20034;-80
2022/01/16 12:12:11;;;;;;;27.98;19.55;;;;;;;;;;4998898;28;20026;-80
2022/01/16 12:14:49;;;;;;;25.00;18.55;;;;;;;;;;4984459;28;20026;-80
2022/01/16 12:17:30;;;;;;;28.48;19.33;;;;;;;;;;4998192;28;20023;-79
2022/01/16 12:19:57;;;;;;;33.63;18.98;;;;;;;;;;4988839;28;20030;-79
2022/01/16 12:22:46;;;;;;;30.50;20.30;;;;;;;;;;4994088;28;20555;-79
2022/01/16 12:25:31;;;;;;;27.48;18.33;;;;;;;;;;4999920;28;20030;-80
2022/01/16 12:28:08;;;;;;;29.23;18.25;;;;;;;;;;4999347;28;20030;-79
2022/01/16 12:30:55;;;;;;;29.63;18.67;;;;;;;;;;5000922;28;20030;-80
2022/01/16 12:33:41;;;;;;;29.20;18.70;;;;;;;;;;4999143;28;20486;-79
2022/01/16 12:36:18;;;;;;;27.50;17.90;;;;;;;;;;4997836;28;20065;-79
2022/01/16 12:39:13;;;;;;;25.08;17.23;;;;;;;;;;4998050;28;20076;-79
2022/01/16 12:41:43;;;;;;;25.85;17.75;;;;;;;;;;4985758;28;20030;-80
2022/01/16 12:44:17;;;;;;;28.25;18.58;;;;;;;;;;5003480;28;20057;-79
2022/01/16 12:46:45;;;;;;;24.88;17.00;;;;;;;;;;5001969;28;20069;-79
2022/01/16 12:49:16;;;;;;;27.67;19.73;;;;;;;;;;4989312;28;20031;-79
2022/01/16 12:51:44;;;;;;;26.35;17.00;;;;;;;;;;4986323;28;20046;-79
2022/01/16 12:54:11;;;;;;;25.33;16.38;;;;;;;;;;5002651;28;20050;-79
2022/01/16 12:56:43;;;;;;;25.27;15.32;;;;;;;;;;4997331;28;20049;-80
2022/01/16 12:59:17;;;;;;;25.83;15.13;;;;;;;;;;4996497;28;20034;-80
2022/01/16 13:01:51;;;;;;;23.33;16.30;;;;;;;;;;4993487;28;20026;-79
2022/01/16 13:04:21;;;;;;;19.90;12.45;;;;;;;;;;5000190;28;20022;-80
2022/01/16 13:06:47;;;;;;;16.85;11.82;;;;;;;;;;5003991;28;20109;-80
2022/01/16 13:09:14;;;;;;;14.80;8.82;;;;;;;;;;4993531;28;20026;-79
2022/01/16 13:11:44;;;;;;;16.25;8.95;;;;;;;;;;5002529;28;20046;-79
2022/01/16 13:14:22;;;;;;;15.13;8.93;;;;;;;;;;5004141;28;20034;-79
2022/01/16 13:16:50;;;;;;;13.68;8.43;;;;;;;;;;5003820;28;20037;-80
2022/01/16 13:19:21;;;;;;;16.08;9.55;;;;;;;;;;4994173;28;20116;-78
2022/01/16 13:21:49;;;;;;;14.68;8.90;;;;;;;;;;5000282;28;20022;-78
2022/01/16 13:24:25;;;;;;;19.67;9.27;;;;;;;;;;5001056;28;20101;-79
2022/01/16 13:26:51;;;;;;;15.07;8.35;;;;;;;;;;5000881;28;20053;-79
2022/01/16 13:29:19;;;;;;;14.85;8.65;;;;;;;;;;5001491;28;20034;-79
2022/01/16 13:31:45;;;;;;;14.55;8.38;;;;;;;;;;4988509;28;20051;-80
2022/01/16 13:34:13;;;;;;;14.25;8.48;;;;;;;;;;5000029;28;20026;-79
2022/01/16 13:36:50;;;;;;;14.32;8.32;;;;;;;;;;5002487;28;20560;-79
2022/01/16 13:39:16;;;;;;;20.75;9.25;;;;;;;;;;5001674;28;20034;-79
2022/01/16 13:41:44;;;;;;;14.90;9.02;;;;;;;;;;5001234;28;20026;-79
2022/01/16 13:44:26;;;;;;;13.15;8.43;;;;;;;;;;4985835;28;20026;-78
2022/01/16 13:46:58;;;;;;;15.85;8.75;;;;;;;;;;4983512;28;20054;-79
2022/01/16 13:49:25;;;;;;;16.85;9.15;;;;;;;;;;4993741;28;20030;-78
2022/01/16 13:51:59;;;;;;;15.25;8.30;;;;;;;;;;5000725;28;20102;-79
2022/01/16 13:54:32;;;;;;;15.05;9.32;;;;;;;;;;4991810;28;20041;-79
2022/01/16 13:57:00;;;;;;;;;;;;;;;;;;4982844;28;20082;-78
2022/01/16 13:59:27;;;;;;;16.00;8.05;;;;;;;;;;4991219;28;19910;-78
2022/01/16 14:01:54;;;;;;;14.70;7.82;;;;;;;;;;4988410;28;20031;-79
2022/01/16 14:04:21;;;;;;;18.23;8.82;;;;;;;;;;5000937;28;20031;-79
2022/01/16 14:07:03;;;;;;;13.77;7.97;;;;;;;;;;5001975;28;20037;-80
2022/01/16 14:09:32;;;;;;;18.25;9.43;;;;;;;;;;4984225;28;20117;-80
2022/01/16 14:11:58;;;;;;;14.48;9.35;;;;;;;;;;4983108;28;20031;-80
2022/01/16 14:14:26;;;;;;;15.93;9.02;;;;;;;;;;4997886;28;20038;-79
2022/01/16 14:19:42;;;;;;;18.10;9.00;;;;;;;;;;4992650;28;20615;-79
2022/01/16 14:22:12;;;;;;;15.13;9.20;;;;;;;;;;5000556;28;20018;-79
2022/01/16 14:24:40;;;;;;;15.23;9.20;;;;;;;;;;4999374;28;20460;-79
2022/01/16 14:27:11;;;;;;;15.57;9.93;;;;;;;;;;4999292;28;20050;-78
2022/01/16 14:29:38;;;;;;;15.25;9.18;;;;;;;;;;5000814;28;20030;-78
2022/01/16 14:32:05;;;;;;;18.42;10.80;;;;;;;;;;5000824;28;20027;-79
2022/01/16 14:34:31;;;;;;;16.98;9.70;;;;;;;;;;5000396;28;20524;-80
2022/01/16 14:36:57;;;;;;;20.17;11.38;;;;;;;;;;4999720;28;20019;-79
2022/01/16 14:39:24;;;;;;;16.50;9.63;;;;;;;;;;4999729;28;20019;-80
2022/01/16 14:41:51;;;;;;;17.48;9.40;;;;;;;;;;5002778;28;20042;-78
2022/01/16 14:44:19;;;;;;;16.00;9.13;;;;;;;;;;4997616;28;20035;-79
2022/01/16 14:46:46;;;;;;;17.95;9.95;;;;;;;;;;4982318;28;20030;-79
2022/01/16 14:49:12;;;;;;;16.83;9.10;;;;;;;;;;4996349;28;20026;-79
2022/01/16 14:51:38;;;;;;;18.38;9.73;;;;;;;;;;4997984;28;20014;-79
2022/01/16 14:54:08;;;;;;;19.90;9.93;;;;;;;;;;4999952;28;20030;-79
2022/01/16 14:56:34;;;;;;;17.80;10.25;;;;;;;;;;5002140;28;20049;-79
2022/01/16 14:59:01;;;;;;;17.33;9.52;;;;;;;;;;4986115;28;20034;-79
2022/01/16 15:01:29;;;;;;;22.27;10.13;;;;;;;;;;4981273;28;20023;-79
2022/01/16 15:03:57;;;;;;;16.27;8.63;;;;;;;;;;4989399;28;20086;-79
2022/01/16 15:06:25;;;;;;;17.50;9.00;;;;;;;;;;5000440;28;20041;-79
2022/01/16 15:08:52;;;;;;;16.65;9.13;;;;;;;;;;4999021;28;20038;-78
2022/01/16 15:11:19;;;;;;;16.55;9.65;;;;;;;;;;5000175;28;20026;-79
2022/01/16 15:13:48;;;;;;;15.23;9.07;;;;;;;;;;4987829;28;20034;-79